createdAt,value
2018-04-29T00:00:12.256Z,1005.31
2018-04-29T00:01:12.283Z,1005.26
2018-04-29T00:02:12.292Z,1005.29
2018-04-29T00:03:12.313Z,1005.31
2018-04-29T00:04:12.339Z,1005.33
2018-04-29T00:05:12.346Z,1005.37
2018-04-29T00:06:12.371Z,1005.40
2018-04-29T00:07:12.386Z,1005.37
2018-04-29T00:08:12.404Z,1005.36
2018-04-29T00:09:12.419Z,1005.41
2018-04-29T00:10:12.441Z,1005.40
2018-04-29T00:11:12.461Z,1005.39
2018-04-29T00:12:12.479Z,1005.36
2018-04-29T00:13:12.495Z,1005.40
2018-04-29T00:14:12.516Z,1005.41
2018-04-29T00:15:12.532Z,1005.36
2018-04-29T00:16:12.862Z,1005.33
2018-04-29T00:17:12.571Z,1005.28
2018-04-29T00:18:12.583Z,1005.26
2018-04-29T00:19:12.601Z,1005.20
2018-04-29T00:20:12.626Z,1005.09
2018-04-29T00:21:12.635Z,1005.09
2018-04-29T00:22:12.662Z,1005.07
2018-04-29T00:23:12.669Z,1005.03
2018-04-29T00:24:12.690Z,1005.07
2018-04-29T00:25:12.714Z,1005.05
2018-04-29T00:26:12.731Z,1005.08
2018-04-29T00:27:12.741Z,1005.01
2018-04-29T00:28:12.764Z,1005.01
2018-04-29T00:29:12.781Z,1005.00
2018-04-29T00:30:12.796Z,1005.03
2018-04-29T00:31:12.816Z,1005.00
2018-04-29T00:32:12.833Z,1004.97
2018-04-29T00:33:12.850Z,1005.01
2018-04-29T00:34:12.873Z,1005.02
2018-04-29T00:35:12.889Z,1004.96
2018-04-29T00:36:12.918Z,1004.96
2018-04-29T00:37:12.922Z,1005.03
2018-04-29T00:38:12.939Z,1005.04
2018-04-29T00:39:12.965Z,1005.04
2018-04-29T00:40:12.979Z,1005.09
2018-04-29T00:41:13.001Z,1005.09
2018-04-29T00:42:13.012Z,1005.07
2018-04-29T00:43:13.039Z,1005.10
2018-04-29T00:44:13.055Z,1005.07
2018-04-29T00:45:13.067Z,1005.07
2018-04-29T00:46:13.084Z,1005.06
2018-04-29T00:47:13.101Z,1005.03
2018-04-29T00:48:13.119Z,1005.05
2018-04-29T00:49:13.158Z,1005.04
2018-04-29T00:50:13.155Z,1005.05
2018-04-29T00:51:13.173Z,1005.02
2018-04-29T00:52:13.196Z,1005.00
2018-04-29T00:53:13.263Z,1004.95
2018-04-29T00:54:13.226Z,1004.96
2018-04-29T00:55:13.253Z,1004.94
2018-04-29T00:56:13.261Z,1004.93
2018-04-29T00:57:13.279Z,1004.93
2018-04-29T00:58:13.299Z,1004.92
2018-04-29T00:59:13.318Z,1004.87
2018-04-29T01:00:13.339Z,1004.88
2018-04-29T01:01:13.352Z,1004.83
2018-04-29T01:02:13.369Z,1004.84
2018-04-29T01:03:13.394Z,1004.84
2018-04-29T01:04:13.407Z,1004.85
2018-04-29T01:05:13.425Z,1004.90
2018-04-29T01:06:13.445Z,1004.92
2018-04-29T01:07:13.460Z,1004.93
2018-04-29T01:08:13.477Z,1004.95
2018-04-29T01:09:13.493Z,1004.97
2018-04-29T01:10:13.517Z,1004.99
2018-04-29T01:11:13.534Z,1004.94
2018-04-29T01:12:13.544Z,1004.94
2018-04-29T01:13:13.563Z,1004.88
2018-04-29T01:14:13.581Z,1004.82
2018-04-29T01:15:13.604Z,1004.79
2018-04-29T01:16:13.615Z,1004.77
2018-04-29T01:17:13.631Z,1004.75
2018-04-29T01:18:13.649Z,1004.70
2018-04-29T01:19:13.677Z,1004.68
2018-04-29T01:20:13.685Z,1004.69
2018-04-29T01:21:13.702Z,1004.65
2018-04-29T01:22:13.728Z,1004.66
2018-04-29T01:23:13.746Z,1004.66
2018-04-29T01:24:13.755Z,1004.64
2018-04-29T01:25:13.770Z,1004.65
2018-04-29T01:26:13.789Z,1004.60
2018-04-29T01:27:13.812Z,1004.68
2018-04-29T01:28:13.823Z,1004.66
2018-04-29T01:29:13.839Z,1004.65
2018-04-29T01:30:13.861Z,1004.64
2018-04-29T01:31:13.878Z,1004.65
2018-04-29T01:32:13.901Z,1004.63
2018-04-29T01:33:13.909Z,1004.60
2018-04-29T01:34:13.942Z,1004.63
2018-04-29T01:35:13.954Z,1004.61
2018-04-29T01:36:13.969Z,1004.58
2018-04-29T01:37:13.984Z,1004.55
2018-04-29T01:38:14.001Z,1004.59
2018-04-29T01:39:14.016Z,1004.60
2018-04-29T01:40:14.032Z,1004.63
2018-04-29T01:41:14.054Z,1004.63
2018-04-29T01:42:14.072Z,1004.60
2018-04-29T01:43:14.084Z,1004.57
2018-04-29T01:44:14.103Z,1004.56
2018-04-29T01:45:14.143Z,1004.53
2018-04-29T01:46:14.139Z,1004.46
2018-04-29T01:47:14.157Z,1004.46
2018-04-29T01:48:14.174Z,1004.43
2018-04-29T03:48:39.131Z,1003.43
2018-04-29T03:49:39.101Z,1003.40
2018-04-29T03:51:32.011Z,1003.41
2018-04-29T03:52:32.015Z,1003.36
2018-04-29T03:54:24.990Z,1003.29
2018-04-29T03:55:24.945Z,1003.29
2018-04-29T03:57:17.855Z,1003.34
2018-04-29T03:58:17.859Z,1003.35
2018-04-29T04:00:10.807Z,1003.35
2018-04-29T04:01:10.790Z,1003.35
2018-04-29T04:03:03.707Z,1003.28
2018-04-29T04:04:03.713Z,1003.29
2018-04-29T04:05:56.646Z,1003.33
2018-04-29T04:06:56.639Z,1003.34
2018-04-29T04:08:49.586Z,1003.29
2018-04-29T04:09:49.645Z,1003.27
2018-04-29T04:11:42.486Z,1003.26
2018-04-29T04:12:42.497Z,1003.30
2018-04-29T04:14:35.475Z,1003.32
2018-04-29T04:15:35.429Z,1003.29
2018-04-29T04:17:28.350Z,1003.30
2018-04-29T04:18:28.356Z,1003.21
2018-04-29T04:20:21.308Z,1003.25
2018-04-29T04:21:21.288Z,1003.24
2018-04-29T04:23:14.207Z,1003.29
2018-04-29T04:24:14.219Z,1003.36
2018-04-29T04:26:07.158Z,1003.38
2018-04-29T04:27:07.150Z,1003.41
2018-04-29T04:29:00.086Z,1003.50
2018-04-29T04:30:00.088Z,1003.52
2018-04-29T04:31:53.036Z,1003.51
2018-04-29T04:32:53.016Z,1003.54
2018-04-29T04:34:45.964Z,1003.56
2018-04-29T04:35:45.960Z,1003.57
2018-04-29T04:37:38.878Z,1003.65
2018-04-29T04:38:38.884Z,1003.66
2018-04-29T04:40:31.829Z,1003.75
2018-04-29T04:41:31.822Z,1003.72
2018-04-29T04:43:24.750Z,1003.76
2018-04-29T04:44:24.759Z,1003.75
2018-04-29T04:46:17.707Z,1003.77
2018-04-29T04:47:17.689Z,1003.82
2018-04-29T04:49:10.610Z,1003.88
2018-04-29T04:50:10.621Z,1003.85
2018-04-29T04:52:03.608Z,1003.95
2018-04-29T04:53:03.559Z,1003.92
2018-04-29T04:54:56.503Z,1003.94
2018-04-29T04:55:56.501Z,1003.91
2018-04-29T04:57:49.418Z,1003.91
2018-04-29T04:58:49.428Z,1003.92
2018-04-29T05:00:42.375Z,1003.90
2018-04-29T05:01:42.365Z,1003.92
2018-04-29T05:03:35.304Z,1004.02
2018-04-29T05:04:35.309Z,1004.05
2018-04-29T05:06:28.643Z,1004.14
2018-04-29T05:07:28.443Z,1004.14
2018-04-29T05:09:21.168Z,1004.17
2018-04-29T05:10:21.181Z,1004.12
2018-04-29T05:12:14.129Z,1004.15
2018-04-29T05:13:14.121Z,1004.17
2018-04-29T05:15:07.068Z,1004.16
2018-04-29T05:16:07.061Z,1004.12
2018-04-29T05:17:59.985Z,1004.05
2018-04-29T05:18:59.994Z,1004.04
2018-04-29T05:20:52.953Z,1004.01
2018-04-29T05:21:52.945Z,1003.94
2018-04-29T05:23:45.859Z,1003.90
2018-04-29T05:24:45.871Z,1003.93
2018-04-29T05:26:38.823Z,1003.91
2018-04-29T05:27:38.823Z,1003.86
2018-04-29T05:29:31.742Z,1003.84
2018-04-29T05:30:31.761Z,1003.78
2018-04-29T05:32:24.702Z,1003.69
2018-04-29T05:33:24.694Z,1003.68
2018-04-29T05:35:17.696Z,1003.56
2018-04-29T05:36:17.635Z,1003.47
2018-04-29T05:38:10.560Z,1003.40
2018-04-29T05:39:10.575Z,1003.38
2018-04-29T05:41:03.523Z,1003.32
2018-04-29T05:42:03.510Z,1003.31
2018-04-29T05:43:56.438Z,1003.25
2018-04-29T05:44:56.451Z,1003.27
2018-04-29T05:46:49.392Z,1003.24
2018-04-29T05:47:49.389Z,1003.24
2018-04-29T05:49:42.316Z,1003.14
2018-04-29T05:50:42.332Z,1003.18
2018-04-29T05:52:35.277Z,1003.04
2018-04-29T05:53:35.275Z,1002.95
2018-04-29T05:55:28.225Z,1002.93
2018-04-29T05:56:28.214Z,1002.94
2018-04-29T05:58:21.140Z,1002.98
2018-04-29T05:59:21.159Z,1002.98
2018-04-29T06:01:14.108Z,1003.01
2018-04-29T06:02:14.097Z,1003.00
2018-04-29T06:04:07.028Z,1002.97
2018-04-29T06:05:07.041Z,1002.94
2018-04-29T06:06:59.983Z,1002.96
2018-04-29T06:07:59.978Z,1002.99
2018-04-29T06:09:52.905Z,1003.00
2018-04-29T06:10:52.917Z,1003.02
2018-04-29T06:12:45.872Z,1003.02
2018-04-29T06:13:45.861Z,1003.03
2018-04-29T06:15:38.809Z,1003.01
2018-04-29T06:16:38.808Z,1003.01
2018-04-29T06:18:31.733Z,1003.05
2018-04-29T06:19:31.747Z,1003.07
2018-04-29T06:21:24.695Z,1003.06
2018-04-29T06:22:24.683Z,1003.10
2018-04-29T06:24:17.619Z,1003.07
2018-04-29T06:25:17.631Z,1003.02
2018-04-29T06:27:10.587Z,1003.04
2018-04-29T06:28:10.584Z,1003.03
2018-04-29T06:30:03.505Z,1003.08
2018-04-29T06:31:03.521Z,1003.09
2018-04-29T06:32:56.467Z,1003.07
2018-04-29T06:33:56.462Z,1003.13
2018-04-29T06:35:49.410Z,1003.26
2018-04-29T06:36:49.401Z,1003.25
2018-04-29T06:38:42.351Z,1003.28
2018-04-29T06:39:42.348Z,1003.31
2018-04-29T06:41:35.291Z,1003.47
2018-04-29T06:42:35.283Z,1003.54
2018-04-29T06:44:28.215Z,1003.63
2018-04-29T06:45:28.225Z,1003.76
2018-04-29T06:47:21.171Z,1003.84
2018-04-29T06:48:21.166Z,1003.91
2018-04-29T06:50:14.098Z,1003.99
2018-04-29T06:51:14.112Z,1004.03
2018-04-29T06:53:07.059Z,1004.00
2018-04-29T06:54:07.049Z,1003.96
2018-04-29T06:55:59.994Z,1003.93
2018-04-29T06:56:59.988Z,1003.92
2018-04-29T06:58:52.925Z,1003.83
2018-04-29T06:59:52.929Z,1003.82
2018-04-29T07:01:45.877Z,1003.72
2018-04-29T07:02:45.877Z,1003.68
2018-04-29T07:04:38.796Z,1003.65
2018-04-29T07:05:40.258Z,1003.60
2018-04-29T07:07:31.833Z,1003.47
2018-04-29T07:08:32.700Z,1003.39
2018-04-29T07:10:24.757Z,1003.41
2018-04-29T07:11:26.665Z,1003.35
2018-04-29T07:13:17.815Z,1003.27
2018-04-29T07:14:20.310Z,1003.15
2018-04-29T07:16:12.600Z,1002.98
2018-04-29T07:17:13.242Z,1003.04
2018-04-29T07:19:03.624Z,1003.11
2018-04-29T07:20:06.564Z,1003.15
2018-04-29T07:21:56.659Z,1003.15
2018-04-29T07:23:00.511Z,1003.18
2018-04-29T07:24:51.467Z,1003.10
2018-04-29T07:25:49.544Z,1003.06
2018-04-29T07:27:43.563Z,1002.92
2018-04-29T07:28:43.642Z,1003.03
2018-04-29T07:30:35.472Z,1002.99
2018-04-29T07:31:36.377Z,1002.97
2018-04-29T07:33:28.435Z,1002.97
2018-04-29T07:34:28.415Z,1002.98
2018-04-29T07:36:21.380Z,1002.98
2018-04-29T07:37:22.265Z,1002.99
2018-04-29T07:39:14.850Z,1002.99
2018-04-29T07:40:14.838Z,1003.05
2018-04-29T07:42:07.798Z,1003.00
2018-04-29T07:43:07.797Z,1003.06
2018-04-29T07:45:01.675Z,1003.15
2018-04-29T07:46:00.760Z,1003.20
2018-04-29T07:47:53.797Z,1003.31
2018-04-29T07:48:54.642Z,1003.32
2018-04-29T07:50:46.753Z,1003.39
2018-04-29T07:51:46.732Z,1003.40
2018-04-29T07:53:40.553Z,1003.47
2018-04-29T07:54:41.562Z,1003.44
2018-04-29T07:56:34.524Z,1003.41
2018-04-29T07:57:34.004Z,1003.45
2018-04-29T07:59:28.540Z,1003.62
2018-04-29T08:00:29.962Z,1003.71
2018-04-29T08:02:22.955Z,1003.79
2018-04-29T08:03:21.042Z,1003.85
2018-04-29T08:05:14.013Z,1003.90
2018-04-29T08:06:16.557Z,1003.98
2018-04-29T08:08:08.888Z,1003.82
2018-04-29T08:09:06.953Z,1003.73
2018-04-29T08:11:01.949Z,1003.52
2018-04-29T08:12:00.423Z,1003.47
2018-04-29T08:13:59.302Z,1003.50
2018-04-29T08:15:00.300Z,1003.47
2018-04-29T08:16:52.363Z,1003.43
2018-04-29T08:17:52.777Z,1003.42
2018-04-29T08:19:46.834Z,1003.36
2018-04-29T08:20:44.405Z,1003.27
2018-04-29T08:22:40.486Z,1003.21
2018-04-29T08:23:37.357Z,1003.13
2018-04-29T08:25:32.240Z,1003.15
2018-04-29T08:26:30.900Z,1003.15
2018-04-29T08:28:25.720Z,1003.25
2018-04-29T08:29:23.779Z,1003.23
2018-04-29T08:31:17.312Z,1003.26
2018-04-29T08:32:18.660Z,1003.18
2018-04-29T08:34:10.297Z,1003.14
2018-04-29T08:35:10.715Z,1003.10
2018-04-29T08:37:03.765Z,1003.09
2018-04-29T08:38:03.669Z,1003.10
2018-04-29T08:39:58.072Z,1002.99
2018-04-29T08:40:56.610Z,1002.91
2018-04-29T08:42:49.645Z,1002.85
2018-04-29T08:43:52.001Z,1002.84
2018-04-29T08:45:44.491Z,1002.79
2018-04-29T08:46:42.529Z,1002.83
2018-04-29T08:48:37.465Z,1002.77
2018-04-29T08:49:36.914Z,1002.81
2018-04-29T08:51:30.376Z,1002.83
2018-04-29T08:52:28.969Z,1002.80
2018-04-29T08:54:22.517Z,1002.75
2018-04-29T08:55:23.338Z,1002.71
2018-04-29T08:57:15.384Z,1002.75
2018-04-29T08:58:15.881Z,1002.72
2018-04-29T09:00:08.444Z,1002.68
2018-04-29T09:01:08.837Z,1002.74
2018-04-29T09:03:02.549Z,1002.79
2018-04-29T09:04:01.307Z,1002.79
2018-04-29T09:05:54.257Z,1002.78
2018-04-29T09:06:54.233Z,1002.77
2018-04-29T09:08:47.797Z,1002.79
2018-04-29T09:09:47.185Z,1002.74
2018-04-29T09:11:41.075Z,1002.70
2018-04-29T09:12:41.578Z,1002.74
2018-04-29T09:14:34.027Z,1002.75
2018-04-29T09:15:33.126Z,1002.69
2018-04-29T09:17:26.586Z,1002.63
2018-04-29T09:18:26.564Z,1002.63
2018-04-29T09:20:19.035Z,1002.64
2018-04-29T09:21:20.440Z,1002.73
2018-04-29T09:23:12.888Z,1002.68
2018-04-29T09:24:13.400Z,1002.70
2018-04-29T09:26:07.983Z,1002.60
2018-04-29T09:27:05.853Z,1002.60
2018-04-29T09:28:59.308Z,1002.50
2018-04-29T09:29:57.905Z,1002.40
2018-04-29T09:31:51.364Z,1002.32
2018-04-29T09:32:51.374Z,1002.36
2018-04-29T09:34:44.321Z,1002.35
2018-04-29T09:35:45.225Z,1002.31
2018-04-29T09:37:37.276Z,1002.32
2018-04-29T09:38:37.284Z,1002.33
2018-04-29T09:40:32.176Z,1002.35
2018-04-29T09:41:30.299Z,1002.40
2018-04-29T09:43:25.244Z,1002.32
2018-04-29T09:44:23.244Z,1002.27
2018-04-29T09:46:16.128Z,1002.20
2018-04-29T09:47:16.141Z,1002.19
2018-04-29T09:49:09.102Z,1002.29
2018-04-29T09:50:09.096Z,1002.27
2018-04-29T09:52:02.033Z,1002.22
2018-04-29T09:53:02.051Z,1002.28
2018-04-29T09:54:55.001Z,1002.26
2018-04-29T09:55:54.992Z,1002.27
2018-04-29T09:57:47.929Z,1002.24
2018-04-29T09:58:47.941Z,1002.23
2018-04-29T10:00:40.909Z,1002.25
2018-04-29T10:01:40.894Z,1002.23
2018-04-29T10:03:33.850Z,1002.17
2018-04-29T10:04:33.846Z,1002.17
2018-04-29T10:06:26.789Z,1002.16
2018-04-29T10:07:26.796Z,1002.12
2018-04-29T10:09:19.750Z,1001.99
2018-04-29T10:10:19.740Z,1001.92
2018-04-29T10:12:12.674Z,1001.94
2018-04-29T10:13:12.694Z,1002.01
2018-04-29T10:15:05.644Z,1001.92
2018-04-29T10:16:05.642Z,1001.85
2018-04-29T10:17:58.573Z,1001.82
2018-04-29T10:18:58.594Z,1001.80
2018-04-29T10:20:51.541Z,1001.82
2018-04-29T10:21:51.537Z,1001.77
2018-04-29T10:23:44.489Z,1001.68
2018-04-29T10:24:44.582Z,1001.71
2018-04-29T10:26:37.416Z,1001.69
2018-04-29T10:27:37.432Z,1001.66
2018-04-29T10:29:30.386Z,1001.61
2018-04-29T10:30:30.385Z,1001.56
2018-04-29T10:32:23.340Z,1001.52
2018-04-29T10:33:23.332Z,1001.45
2018-04-29T10:35:16.305Z,1001.50
2018-04-29T10:36:16.283Z,1001.50
2018-04-29T10:38:09.220Z,1001.49
2018-04-29T10:39:09.231Z,1001.39
2018-04-29T10:41:02.245Z,1001.31
2018-04-29T10:42:02.183Z,1001.42
2018-04-29T10:43:55.134Z,1001.43
2018-04-29T10:44:55.133Z,1001.45
2018-04-29T10:46:48.069Z,1001.46
2018-04-29T10:47:48.082Z,1001.42
2018-04-29T10:49:41.037Z,1001.35
2018-04-29T10:50:41.034Z,1001.37
2018-04-29T10:52:34.016Z,1001.37
2018-04-29T10:53:33.989Z,1001.31
2018-04-29T10:55:26.936Z,1001.22
2018-04-29T10:56:26.941Z,1001.22
2018-04-29T10:58:19.869Z,1001.23
2018-04-29T10:59:19.886Z,1001.19
2018-04-29T11:01:12.847Z,1001.30
2018-04-29T11:02:12.841Z,1001.24
2018-04-29T11:04:05.795Z,1001.21
2018-04-29T11:05:05.795Z,1001.28
2018-04-29T11:06:58.733Z,1001.18
2018-04-29T11:07:58.751Z,1001.19
2018-04-29T11:09:51.703Z,1001.20
2018-04-29T11:10:51.705Z,1001.23
2018-04-29T11:12:44.639Z,1001.27
2018-04-29T11:13:44.659Z,1001.30
2018-04-29T11:15:37.620Z,1001.26
2018-04-29T11:16:37.619Z,1001.23
2018-04-29T11:18:30.553Z,1001.17
2018-04-29T11:19:30.573Z,1001.14
2018-04-29T11:21:23.525Z,1001.04
2018-04-29T11:22:23.583Z,1000.94
2018-04-29T11:24:16.497Z,1000.91
2018-04-29T11:25:16.477Z,1000.93
2018-04-29T11:27:09.411Z,1000.92
2018-04-29T11:28:09.437Z,1000.86
2018-04-29T11:30:02.399Z,1000.93
2018-04-29T11:31:02.388Z,1000.96
2018-04-29T11:32:55.332Z,1001.01
2018-04-29T11:33:55.357Z,1001.04
2018-04-29T11:35:48.299Z,1001.06
2018-04-29T11:36:48.294Z,1001.03
2018-04-29T11:38:41.230Z,1000.92
2018-04-29T11:39:41.252Z,1000.87
2018-04-29T11:41:34.202Z,1000.74
2018-04-29T11:42:34.204Z,1000.71
2018-04-29T11:44:27.165Z,1000.76
2018-04-29T11:45:27.148Z,1000.75
2018-04-29T11:47:20.087Z,1000.77
2018-04-29T11:48:20.099Z,1000.76
2018-04-29T11:50:13.052Z,1000.67
2018-04-29T11:51:13.050Z,1000.66
2018-04-29T11:53:05.992Z,1000.54
2018-04-29T11:54:06.010Z,1000.46
2018-04-29T11:55:58.959Z,1000.38
2018-04-29T11:56:58.955Z,1000.37
2018-04-29T11:58:51.894Z,1000.33
2018-04-29T11:59:51.908Z,1000.31
2018-04-29T12:01:44.869Z,1000.29
2018-04-29T12:02:44.859Z,1000.24
2018-04-29T12:04:37.803Z,1000.23
2018-04-29T12:05:37.822Z,1000.25
2018-04-29T12:07:30.773Z,1000.31
2018-04-29T12:08:30.770Z,1000.29
2018-04-29T12:10:23.728Z,1000.33
2018-04-29T12:11:23.725Z,1000.29
2018-04-29T12:13:16.667Z,1000.29
2018-04-29T12:14:16.678Z,1000.24
2018-04-29T12:16:09.634Z,1000.17
2018-04-29T12:17:09.631Z,1000.17
2018-04-29T12:19:02.570Z,1000.06
2018-04-29T12:20:02.594Z,1000.08
2018-04-29T12:21:55.543Z,1000.08
2018-04-29T12:22:55.541Z,1000.07
2018-04-29T12:24:48.475Z,999.97
2018-04-29T12:25:48.500Z,1000.08
2018-04-29T12:27:41.471Z,1000.02
2018-04-29T12:28:41.455Z,999.97
2018-04-29T12:30:34.418Z,999.91
2018-04-29T12:31:34.408Z,999.86
2018-04-29T12:33:27.354Z,999.84
2018-04-29T12:34:27.367Z,999.78
2018-04-29T12:36:20.325Z,999.85
2018-04-29T12:37:20.322Z,999.81
2018-04-29T12:39:13.265Z,999.72
2018-04-29T12:40:13.279Z,999.69
2018-04-29T12:42:06.238Z,999.59
2018-04-29T12:43:06.236Z,999.53
2018-04-29T12:44:59.180Z,999.44
2018-04-29T12:45:59.195Z,999.42
2018-04-29T12:47:52.149Z,999.38
2018-04-29T12:48:52.152Z,999.41
2018-04-29T12:50:45.106Z,999.35
2018-04-29T12:51:45.109Z,999.43
2018-04-29T12:53:38.043Z,999.34
2018-04-29T12:54:38.063Z,999.31
2018-04-29T12:56:31.025Z,999.33
2018-04-29T12:57:31.018Z,999.26
2018-04-29T12:59:23.956Z,999.22
2018-04-29T13:00:24.043Z,999.21
2018-04-29T13:02:16.930Z,999.23
2018-04-29T13:03:16.928Z,999.18
2018-04-29T13:05:09.863Z,999.08
2018-04-29T13:06:09.906Z,999.02
2018-04-29T13:08:02.841Z,998.98
2018-04-29T13:09:02.837Z,998.93
2018-04-29T13:10:55.794Z,998.92
2018-04-29T13:11:55.799Z,999.02
2018-04-29T13:13:48.731Z,999.01
2018-04-29T13:14:48.747Z,998.98
2018-04-29T13:16:41.704Z,999.06
2018-04-29T13:17:41.704Z,998.97
2018-04-29T13:19:34.646Z,998.98
2018-04-29T13:20:34.657Z,998.92
2018-04-29T13:22:27.615Z,998.91
2018-04-29T13:23:27.615Z,998.81
2018-04-29T13:25:20.557Z,998.74
2018-04-29T13:26:20.571Z,998.74
2018-04-29T13:28:13.527Z,998.62
2018-04-29T13:29:13.527Z,998.73
2018-04-29T13:31:06.492Z,998.70
2018-04-29T13:32:06.486Z,998.62
2018-04-29T13:33:59.421Z,998.59
2018-04-29T13:34:59.440Z,998.56
2018-04-29T13:36:52.404Z,998.50
2018-04-29T13:37:52.401Z,998.47
2018-04-29T13:39:45.343Z,998.36
2018-04-29T13:40:45.357Z,998.40
2018-04-29T13:42:38.316Z,998.43
2018-04-29T13:43:38.314Z,998.37
2018-04-29T13:45:31.270Z,998.33
2018-04-29T13:46:31.269Z,998.32
2018-04-29T13:47:31.302Z,998.33
2018-04-29T13:48:31.315Z,998.34
2018-04-29T13:49:31.345Z,998.34
2018-04-29T13:50:31.369Z,998.30
2018-04-29T13:51:31.394Z,998.25
2018-04-29T13:52:31.412Z,998.24
2018-04-29T13:53:31.436Z,998.23
2018-04-29T13:54:31.460Z,998.26
2018-04-29T13:55:31.490Z,998.30
2018-04-29T13:56:31.525Z,998.30
2018-04-29T13:57:31.587Z,998.22
2018-04-29T13:58:31.564Z,998.20
2018-04-29T13:59:31.587Z,998.17
2018-04-29T14:00:31.605Z,998.14
2018-04-29T14:01:31.635Z,998.13
2018-04-29T14:02:31.657Z,998.13
2018-04-29T14:03:31.788Z,998.13
2018-04-29T14:04:31.702Z,998.17
2018-04-29T14:05:31.731Z,998.17
2018-04-29T14:06:31.751Z,998.18
2018-04-29T14:07:31.778Z,998.15
2018-04-29T14:08:31.799Z,998.16
2018-04-29T14:09:31.830Z,998.17
2018-04-29T14:10:31.870Z,998.25
2018-04-29T14:11:31.871Z,998.24
2018-04-29T14:12:31.915Z,998.37
2018-04-29T14:13:31.923Z,998.30
2018-04-29T14:14:31.942Z,998.33
2018-04-29T14:15:31.975Z,998.23
2018-04-29T14:16:31.993Z,998.21
2018-04-29T14:17:32.028Z,998.21
2018-04-29T14:18:32.047Z,998.19
2018-04-29T14:19:32.073Z,998.14
2018-04-29T14:20:32.089Z,998.19
2018-04-29T14:21:32.111Z,998.18
2018-04-29T14:22:32.136Z,998.14
2018-04-29T14:23:32.167Z,998.12
2018-04-29T14:24:32.185Z,998.09
2018-04-29T14:25:32.219Z,998.00
2018-04-29T14:26:32.236Z,998.01
2018-04-29T14:27:32.258Z,998.05
2018-04-29T14:28:32.284Z,998.02
2018-04-29T14:29:32.312Z,998.11
2018-04-29T14:30:32.336Z,998.10
2018-04-29T14:31:32.360Z,998.06
2018-04-29T14:32:32.391Z,997.98
2018-04-29T14:33:32.409Z,997.92
2018-04-29T14:34:32.489Z,997.89
2018-04-29T14:35:32.457Z,997.93
2018-04-29T14:36:32.538Z,997.94
2018-04-29T14:37:32.507Z,997.93
2018-04-29T14:38:32.539Z,997.93
2018-04-29T14:39:32.560Z,997.93
2018-04-29T14:40:32.593Z,997.90
2018-04-29T14:41:32.607Z,997.99
2018-04-29T14:42:32.633Z,997.87
2018-04-29T14:43:32.658Z,997.87
2018-04-29T14:44:32.684Z,997.85
2018-04-29T14:45:32.716Z,997.82
2018-04-29T14:46:32.735Z,997.82
2018-04-29T14:47:32.757Z,997.79
2018-04-29T14:48:32.780Z,997.84
2018-04-29T14:49:32.885Z,997.86
2018-04-29T14:50:32.833Z,997.90
2018-04-29T14:51:32.857Z,997.90
2018-04-29T14:52:32.885Z,997.95
2018-04-29T14:53:32.904Z,997.95
2018-04-29T14:54:32.934Z,997.91
2018-04-29T14:55:32.965Z,997.89
2018-04-29T14:56:32.979Z,997.89
2018-04-29T14:57:33.010Z,997.84
2018-04-29T14:58:33.032Z,997.83
2018-04-29T14:59:33.056Z,997.85
2018-04-29T15:00:33.082Z,997.84
2018-04-29T15:01:33.110Z,997.83
2018-04-29T15:02:33.132Z,997.81
2018-04-29T15:03:33.158Z,997.82
2018-04-29T15:04:33.182Z,997.80
2018-04-29T15:05:33.212Z,997.78
2018-04-29T15:06:33.232Z,997.79
2018-04-29T15:07:33.261Z,997.80
2018-04-29T15:08:33.288Z,997.78
2018-04-29T15:09:33.313Z,997.78
2018-04-29T15:10:33.378Z,997.82
2018-04-29T15:11:33.363Z,997.80
2018-04-29T15:12:33.397Z,997.82
2018-04-29T15:13:33.413Z,997.82
2018-04-29T15:14:33.438Z,997.77
2018-04-29T15:15:33.469Z,997.75
2018-04-29T15:16:33.485Z,997.76
2018-04-29T15:17:33.514Z,997.74
2018-04-29T15:18:33.542Z,997.70
2018-04-29T15:19:33.562Z,997.73
2018-04-29T15:20:33.588Z,997.62
2018-04-29T15:21:33.617Z,997.65
2018-04-29T15:22:33.643Z,997.65
2018-04-29T15:23:33.677Z,997.66
2018-04-29T15:24:33.686Z,997.61
2018-04-29T15:25:33.710Z,997.58
2018-04-29T15:26:33.737Z,997.56
2018-04-29T15:27:33.762Z,997.50
2018-04-29T15:28:33.788Z,997.52
2018-04-29T15:29:33.809Z,997.54
2018-04-29T15:30:33.852Z,997.49
2018-04-29T15:31:33.864Z,997.50
2018-04-29T15:32:33.891Z,997.46
2018-04-29T15:33:33.909Z,997.40
2018-04-29T15:34:33.936Z,997.34
2018-04-29T15:35:33.964Z,997.31
2018-04-29T15:36:33.983Z,997.31
2018-04-29T15:37:34.012Z,997.29
2018-04-29T15:38:34.041Z,997.31
2018-04-29T15:39:34.062Z,997.29
2018-04-29T15:40:34.126Z,997.26
2018-04-29T15:41:34.110Z,997.21
2018-04-29T15:42:34.135Z,997.23
2018-04-29T15:43:34.158Z,997.19
2018-04-29T15:44:34.183Z,997.14
2018-04-29T15:45:34.207Z,997.15
2018-04-29T15:46:34.301Z,997.15
2018-04-29T15:47:34.261Z,997.19
2018-04-29T15:48:34.278Z,997.15
2018-04-29T15:49:34.306Z,997.11
2018-04-29T15:50:34.337Z,997.08
2018-04-29T15:51:34.358Z,997.10
2018-04-29T15:52:34.379Z,997.08
2018-04-29T15:53:34.408Z,997.09
2018-04-29T15:54:34.434Z,997.13
2018-04-29T15:55:34.458Z,997.09
2018-04-29T15:56:34.477Z,997.08
2018-04-29T15:57:34.504Z,997.08
2018-04-29T15:58:34.530Z,997.09
2018-04-29T15:59:34.561Z,997.08
2018-04-29T16:00:34.583Z,997.10
2018-04-29T16:01:34.607Z,997.06
2018-04-29T16:02:34.627Z,997.00
2018-04-29T16:03:34.713Z,997.00
2018-04-29T16:04:34.679Z,996.98
2018-04-29T16:05:34.709Z,996.99
2018-04-29T16:06:34.728Z,996.98
2018-04-29T16:07:34.754Z,996.96
2018-04-29T16:08:34.777Z,996.94
2018-04-29T16:09:34.802Z,996.87
2018-04-29T16:10:34.831Z,996.87
2018-04-29T16:11:34.856Z,996.88
2018-04-29T16:12:34.877Z,996.87
2018-04-29T16:13:34.904Z,996.78
2018-04-29T16:14:34.932Z,996.81
2018-04-29T16:15:34.956Z,996.78
2018-04-29T16:16:34.978Z,996.79
2018-04-29T16:17:35.015Z,996.82
2018-04-29T16:18:35.026Z,996.79
2018-04-29T16:19:35.052Z,996.75
2018-04-29T16:20:35.079Z,996.71
2018-04-29T16:21:35.109Z,996.64
2018-04-29T16:22:35.135Z,996.53
2018-04-29T16:23:35.154Z,996.55
2018-04-29T16:24:35.178Z,996.53
2018-04-29T16:25:35.202Z,996.53
2018-04-29T16:26:35.228Z,996.46
2018-04-29T16:27:35.256Z,996.45
2018-04-29T16:28:35.280Z,996.41
2018-04-29T16:29:35.304Z,996.41
2018-04-29T16:30:35.338Z,996.42
2018-04-29T16:31:35.365Z,996.41
2018-04-29T16:32:35.378Z,996.34
2018-04-29T16:33:35.406Z,996.34
2018-04-29T16:34:35.443Z,996.34
2018-04-29T16:35:35.455Z,996.38
2018-04-29T16:36:35.485Z,996.34
2018-04-29T16:37:35.508Z,996.35
2018-04-29T16:38:35.538Z,996.41
2018-04-29T16:39:35.563Z,996.42
2018-04-29T16:40:35.584Z,996.43
2018-04-29T16:41:35.605Z,996.40
2018-04-29T16:42:35.631Z,996.41
2018-04-29T16:43:35.710Z,996.38
2018-04-29T16:44:35.688Z,996.39
2018-04-29T16:45:35.709Z,996.36
2018-04-29T16:46:35.731Z,996.34
2018-04-29T16:47:35.760Z,996.36
2018-04-29T16:48:35.791Z,996.35
2018-04-29T16:49:35.808Z,996.30
2018-04-29T16:50:35.837Z,996.28
2018-04-29T16:51:35.866Z,996.30
2018-04-29T16:52:35.897Z,996.21
2018-04-29T16:53:35.909Z,996.23
2018-04-29T16:54:35.939Z,996.20
2018-04-29T16:55:35.973Z,996.18
2018-04-29T16:56:35.986Z,996.24
2018-04-29T16:57:36.012Z,996.25
2018-04-29T16:58:36.040Z,996.32
2018-04-29T16:59:36.063Z,996.31
2018-04-29T17:00:36.089Z,996.30
2018-04-29T17:01:36.119Z,996.31
2018-04-29T17:02:36.138Z,996.32
2018-04-29T17:03:36.162Z,996.31
2018-04-29T17:04:36.190Z,996.34
2018-04-29T17:05:36.219Z,996.30
2018-04-29T17:06:36.237Z,996.27
2018-04-29T17:07:36.263Z,996.23
2018-04-29T17:08:36.287Z,996.20
2018-04-29T17:09:36.314Z,996.22
2018-04-29T17:10:36.338Z,996.21
2018-04-29T17:11:36.363Z,996.14
2018-04-29T17:12:36.395Z,996.17
2018-04-29T17:13:36.415Z,996.16
2018-04-29T17:14:36.440Z,996.14
2018-04-29T17:15:37.786Z,996.14